sensor_id;sensor_type;location;lat;lon;timestamp;P1;durP1;ratioP1;P2;durP2;ratioP2
3941;SDS011;1985;48.592;8.850;2022-10-24T00:00:03;11.00;;;1.50;;
3941;SDS011;1985;48.592;8.850;2022-10-24T00:02:31;12.57;;;1.70;;
3941;SDS011;1985;48.592;8.850;2022-10-24T00:04:56;10.70;;;1.40;;
3941;SDS011;1985;48.592;8.850;2022-10-24T00:07:22;11.40;;;1.60;;
3941;SDS011;1985;48.592;8.850;2022-10-24T00:09:47;12.43;;;1.90;;
3941;SDS011;1985;48.592;8.850;2022-10-24T00:12:13;14.05;;;1.55;;
3941;SDS011;1985;48.592;8.850;2022-10-24T00:14:38;10.20;;;1.50;;
3941;SDS011;1985;48.592;8.850;2022-10-24T00:17:04;15.07;;;1.87;;
3941;SDS011;1985;48.592;8.850;2022-10-24T00:19:31;11.70;;;1.20;;
3941;SDS011;1985;48.592;8.850;2022-10-24T00:21:57;9.20;;;1.70;;
3941;SDS011;1985;48.592;8.850;2022-10-24T00:24:22;12.27;;;1.48;;
3941;SDS011;1985;48.592;8.850;2022-10-24T00:26:49;15.23;;;1.60;;
3941;SDS011;1985;48.592;8.850;2022-10-24T00:29:15;14.10;;;1.63;;
3941;SDS011;1985;48.592;8.850;2022-10-24T00:31:40;11.80;;;1.40;;
3941;SDS011;1985;48.592;8.850;2022-10-24T00:34:06;10.57;;;1.33;;
3941;SDS011;1985;48.592;8.850;2022-10-24T00:36:32;10.55;;;1.10;;
3941;SDS011;1985;48.592;8.850;2022-10-24T00:38:58;11.67;;;1.40;;
3941;SDS011;1985;48.592;8.850;2022-10-24T00:41:25;9.20;;;1.70;;
3941;SDS011;1985;48.592;8.850;2022-10-24T00:46:36;16.42;;;1.80;;
3941;SDS011;1985;48.592;8.850;2022-10-24T00:49:04;11.10;;;1.80;;
3941;SDS011;1985;48.592;8.850;2022-10-24T00:51:36;10.40;;;1.50;;
3941;SDS011;1985;48.592;8.850;2022-10-24T00:54:03;12.15;;;1.60;;
3941;SDS011;1985;48.592;8.850;2022-10-24T00:56:37;10.15;;;1.35;;
3941;SDS011;1985;48.592;8.850;2022-10-24T00:59:06;12.15;;;1.40;;
3941;SDS011;1985;48.592;8.850;2022-10-24T01:01:34;11.68;;;1.58;;
3941;SDS011;1985;48.592;8.850;2022-10-24T01:04:00;9.43;;;1.30;;
3941;SDS011;1985;48.592;8.850;2022-10-24T01:06:49;9.75;;;1.25;;
3941;SDS011;1985;48.592;8.850;2022-10-24T01:09:38;10.48;;;1.50;;
3941;SDS011;1985;48.592;8.850;2022-10-24T01:12:46;8.88;;;1.10;;
3941;SDS011;1985;48.592;8.850;2022-10-24T01:15:29;8.77;;;1.45;;
3941;SDS011;1985;48.592;8.850;2022-10-24T01:21:12;10.90;;;1.55;;
3941;SDS011;1985;48.592;8.850;2022-10-24T01:32:17;16.05;;;1.55;;
3941;SDS011;1985;48.592;8.850;2022-10-24T01:38:14;13.17;;;1.50;;
3941;SDS011;1985;48.592;8.850;2022-10-24T01:40:55;8.40;;;1.20;;
3941;SDS011;1985;48.592;8.850;2022-10-24T01:43:31;9.15;;;1.35;;
3941;SDS011;1985;48.592;8.850;2022-10-24T01:46:12;9.45;;;1.50;;
3941;SDS011;1985;48.592;8.850;2022-10-24T01:48:46;11.88;;;1.77;;
3941;SDS011;1985;48.592;8.850;2022-10-24T01:51:16;9.20;;;1.48;;
3941;SDS011;1985;48.592;8.850;2022-10-24T01:53:45;10.63;;;1.50;;
3941;SDS011;1985;48.592;8.850;2022-10-24T01:56:13;10.85;;;1.40;;
3941;SDS011;1985;48.592;8.850;2022-10-24T01:58:38;15.73;;;1.60;;
3941;SDS011;1985;48.592;8.850;2022-10-24T02:01:05;9.60;;;1.20;;
3941;SDS011;1985;48.592;8.850;2022-10-24T02:03:36;9.90;;;1.58;;
3941;SDS011;1985;48.592;8.850;2022-10-24T02:06:10;7.90;;;1.10;;
3941;SDS011;1985;48.592;8.850;2022-10-24T02:08:40;9.10;;;1.30;;
3941;SDS011;1985;48.592;8.850;2022-10-24T02:11:10;10.30;;;1.50;;
3941;SDS011;1985;48.592;8.850;2022-10-24T02:13:49;9.90;;;1.55;;
3941;SDS011;1985;48.592;8.850;2022-10-24T02:16:29;13.60;;;1.92;;
3941;SDS011;1985;48.592;8.850;2022-10-24T02:18:55;11.73;;;1.90;;
3941;SDS011;1985;48.592;8.850;2022-10-24T02:24:14;9.88;;;1.55;;
3941;SDS011;1985;48.592;8.850;2022-10-24T02:27:05;10.80;;;1.48;;
3941;SDS011;1985;48.592;8.850;2022-10-24T02:29:57;12.35;;;2.10;;
3941;SDS011;1985;48.592;8.850;2022-10-24T02:32:34;9.87;;;1.90;;
3941;SDS011;1985;48.592;8.850;2022-10-24T02:35:04;11.00;;;1.70;;
3941;SDS011;1985;48.592;8.850;2022-10-24T02:37:32;10.80;;;1.92;;
3941;SDS011;1985;48.592;8.850;2022-10-24T02:40:00;9.70;;;1.63;;
3941;SDS011;1985;48.592;8.850;2022-10-24T02:42:29;16.20;;;2.00;;
3941;SDS011;1985;48.592;8.850;2022-10-24T02:44:57;10.30;;;1.80;;
3941;SDS011;1985;48.592;8.850;2022-10-24T02:47:23;11.95;;;2.20;;
3941;SDS011;1985;48.592;8.850;2022-10-24T02:49:50;13.77;;;2.73;;
3941;SDS011;1985;48.592;8.850;2022-10-24T02:52:17;12.85;;;2.10;;
3941;SDS011;1985;48.592;8.850;2022-10-24T02:54:43;11.50;;;2.40;;
3941;SDS011;1985;48.592;8.850;2022-10-24T02:57:09;10.73;;;1.70;;
3941;SDS011;1985;48.592;8.850;2022-10-24T02:59:35;12.23;;;2.45;;
3941;SDS011;1985;48.592;8.850;2022-10-24T03:02:00;11.85;;;2.25;;
3941;SDS011;1985;48.592;8.850;2022-10-24T03:04:26;14.50;;;2.60;;
3941;SDS011;1985;48.592;8.850;2022-10-24T03:06:51;14.60;;;2.10;;
3941;SDS011;1985;48.592;8.850;2022-10-24T03:09:18;13.35;;;2.30;;
3941;SDS011;1985;48.592;8.850;2022-10-24T03:11:43;13.67;;;2.50;;
3941;SDS011;1985;48.592;8.850;2022-10-24T03:14:09;15.93;;;2.60;;
3941;SDS011;1985;48.592;8.850;2022-10-24T03:16:34;13.90;;;2.30;;
3941;SDS011;1985;48.592;8.850;2022-10-24T03:19:00;14.57;;;2.20;;
3941;SDS011;1985;48.592;8.850;2022-10-24T03:21:26;17.60;;;2.50;;
3941;SDS011;1985;48.592;8.850;2022-10-24T03:23:51;12.25;;;2.85;;
3941;SDS011;1985;48.592;8.850;2022-10-24T03:26:17;20.70;;;3.17;;
3941;SDS011;1985;48.592;8.850;2022-10-24T03:28:42;12.60;;;1.87;;
3941;SDS011;1985;48.592;8.850;2022-10-24T03:31:08;10.20;;;1.90;;
3941;SDS011;1985;48.592;8.850;2022-10-24T03:33:34;13.93;;;2.42;;
3941;SDS011;1985;48.592;8.850;2022-10-24T03:35:59;12.10;;;2.13;;
3941;SDS011;1985;48.592;8.850;2022-10-24T03:38:25;12.20;;;2.05;;
3941;SDS011;1985;48.592;8.850;2022-10-24T03:40:51;11.90;;;2.70;;
3941;SDS011;1985;48.592;8.850;2022-10-24T03:43:16;13.07;;;2.50;;
3941;SDS011;1985;48.592;8.850;2022-10-24T03:45:42;11.65;;;1.85;;
3941;SDS011;1985;48.592;8.850;2022-10-24T03:48:08;9.43;;;1.70;;
3941;SDS011;1985;48.592;8.850;2022-10-24T03:50:34;8.90;;;1.67;;
3941;SDS011;1985;48.592;8.850;2022-10-24T03:53:00;10.07;;;1.67;;
3941;SDS011;1985;48.592;8.850;2022-10-24T03:55:26;12.35;;;2.15;;
3941;SDS011;1985;48.592;8.850;2022-10-24T03:57:52;29.08;;;6.70;;
3941;SDS011;1985;48.592;8.850;2022-10-24T04:00:18;17.40;;;3.60;;
3941;SDS011;1985;48.592;8.850;2022-10-24T04:02:45;17.80;;;3.88;;
3941;SDS011;1985;48.592;8.850;2022-10-24T04:05:11;27.45;;;6.00;;
3941;SDS011;1985;48.592;8.850;2022-10-24T04:07:38;24.95;;;5.47;;
3941;SDS011;1985;48.592;8.850;2022-10-24T04:10:04;34.20;;;8.20;;
3941;SDS011;1985;48.592;8.850;2022-10-24T04:12:30;29.60;;;8.27;;
3941;SDS011;1985;48.592;8.850;2022-10-24T04:14:56;37.10;;;8.27;;
3941;SDS011;1985;48.592;8.850;2022-10-24T04:17:22;35.80;;;8.65;;
3941;SDS011;1985;48.592;8.850;2022-10-24T04:19:47;55.67;;;13.90;;
3941;SDS011;1985;48.592;8.850;2022-10-24T04:22:13;27.60;;;7.00;;
3941;SDS011;1985;48.592;8.850;2022-10-24T04:24:39;16.92;;;4.30;;
3941;SDS011;1985;48.592;8.850;2022-10-24T04:27:05;16.50;;;4.40;;
3941;SDS011;1985;48.592;8.850;2022-10-24T04:29:31;17.00;;;4.27;;
3941;SDS011;1985;48.592;8.850;2022-10-24T04:31:56;20.45;;;3.63;;
3941;SDS011;1985;48.592;8.850;2022-10-24T04:34:22;17.80;;;4.10;;
3941;SDS011;1985;48.592;8.850;2022-10-24T04:36:48;13.73;;;3.27;;
3941;SDS011;1985;48.592;8.850;2022-10-24T04:39:13;15.52;;;3.30;;
3941;SDS011;1985;48.592;8.850;2022-10-24T04:41:39;17.43;;;3.50;;
3941;SDS011;1985;48.592;8.850;2022-10-24T04:44:05;14.90;;;3.20;;
3941;SDS011;1985;48.592;8.850;2022-10-24T04:46:31;12.13;;;2.20;;
3941;SDS011;1985;48.592;8.850;2022-10-24T04:48:56;12.87;;;2.97;;
3941;SDS011;1985;48.592;8.850;2022-10-24T04:51:22;14.23;;;2.80;;
3941;SDS011;1985;48.592;8.850;2022-10-24T04:53:48;13.43;;;3.10;;
3941;SDS011;1985;48.592;8.850;2022-10-24T04:56:14;11.25;;;2.38;;
3941;SDS011;1985;48.592;8.850;2022-10-24T04:58:40;14.30;;;2.90;;
3941;SDS011;1985;48.592;8.850;2022-10-24T05:01:06;15.57;;;2.80;;
3941;SDS011;1985;48.592;8.850;2022-10-24T05:03:31;14.23;;;2.47;;
3941;SDS011;1985;48.592;8.850;2022-10-24T05:05:57;12.13;;;2.50;;
3941;SDS011;1985;48.592;8.850;2022-10-24T05:08:22;12.20;;;3.00;;
3941;SDS011;1985;48.592;8.850;2022-10-24T05:10:48;10.63;;;2.47;;
3941;SDS011;1985;48.592;8.850;2022-10-24T05:13:14;11.07;;;2.20;;
3941;SDS011;1985;48.592;8.850;2022-10-24T05:15:39;13.13;;;1.77;;
3941;SDS011;1985;48.592;8.850;2022-10-24T05:18:05;14.57;;;1.97;;
3941;SDS011;1985;48.592;8.850;2022-10-24T05:20:31;15.02;;;2.05;;
3941;SDS011;1985;48.592;8.850;2022-10-24T05:22:56;12.70;;;1.90;;
3941;SDS011;1985;48.592;8.850;2022-10-24T05:25:22;12.37;;;2.10;;
3941;SDS011;1985;48.592;8.850;2022-10-24T05:27:48;14.02;;;2.40;;
3941;SDS011;1985;48.592;8.850;2022-10-24T05:30:13;10.07;;;1.90;;
3941;SDS011;1985;48.592;8.850;2022-10-24T05:32:39;17.20;;;1.98;;
3941;SDS011;1985;48.592;8.850;2022-10-24T05:35:05;13.60;;;2.17;;
3941;SDS011;1985;48.592;8.850;2022-10-24T05:37:32;11.85;;;1.80;;
3941;SDS011;1985;48.592;8.850;2022-10-24T05:39:57;14.17;;;2.67;;
3941;SDS011;1985;48.592;8.850;2022-10-24T05:42:23;17.33;;;2.10;;
3941;SDS011;1985;48.592;8.850;2022-10-24T05:44:49;14.30;;;2.22;;
3941;SDS011;1985;48.592;8.850;2022-10-24T05:47:14;11.63;;;1.70;;
3941;SDS011;1985;48.592;8.850;2022-10-24T05:49:40;13.47;;;2.27;;
3941;SDS011;1985;48.592;8.850;2022-10-24T05:52:05;14.65;;;2.13;;
3941;SDS011;1985;48.592;8.850;2022-10-24T05:54:31;12.20;;;1.97;;
3941;SDS011;1985;48.592;8.850;2022-10-24T05:56:57;12.47;;;2.70;;
3941;SDS011;1985;48.592;8.850;2022-10-24T05:59:22;11.50;;;2.50;;
3941;SDS011;1985;48.592;8.850;2022-10-24T06:01:48;12.83;;;2.20;;
3941;SDS011;1985;48.592;8.850;2022-10-24T06:04:14;16.00;;;2.10;;
3941;SDS011;1985;48.592;8.850;2022-10-24T06:06:40;13.02;;;2.50;;
3941;SDS011;1985;48.592;8.850;2022-10-24T06:09:07;13.88;;;2.55;;
3941;SDS011;1985;48.592;8.850;2022-10-24T06:11:34;16.85;;;2.10;;
3941;SDS011;1985;48.592;8.850;2022-10-24T06:14:00;17.50;;;2.67;;
3941;SDS011;1985;48.592;8.850;2022-10-24T06:16:26;13.73;;;2.40;;
3941;SDS011;1985;48.592;8.850;2022-10-24T06:18:54;13.75;;;2.47;;
3941;SDS011;1985;48.592;8.850;2022-10-24T06:21:19;10.05;;;2.45;;
3941;SDS011;1985;48.592;8.850;2022-10-24T06:23:45;14.13;;;2.45;;
3941;SDS011;1985;48.592;8.850;2022-10-24T06:26:11;16.37;;;3.00;;
3941;SDS011;1985;48.592;8.850;2022-10-24T06:28:38;11.88;;;2.33;;
3941;SDS011;1985;48.592;8.850;2022-10-24T06:31:04;15.40;;;2.20;;
3941;SDS011;1985;48.592;8.850;2022-10-24T06:33:30;14.10;;;2.60;;
3941;SDS011;1985;48.592;8.850;2022-10-24T06:36:03;17.40;;;2.97;;
3941;SDS011;1985;48.592;8.850;2022-10-24T06:38:30;13.93;;;2.80;;
3941;SDS011;1985;48.592;8.850;2022-10-24T06:40:56;14.93;;;3.15;;
3941;SDS011;1985;48.592;8.850;2022-10-24T06:43:22;18.33;;;3.20;;
3941;SDS011;1985;48.592;8.850;2022-10-24T06:45:48;14.00;;;3.25;;
3941;SDS011;1985;48.592;8.850;2022-10-24T06:48:14;14.05;;;3.58;;
3941;SDS011;1985;48.592;8.850;2022-10-24T06:50:40;12.15;;;2.80;;
3941;SDS011;1985;48.592;8.850;2022-10-24T06:53:07;11.30;;;2.13;;
3941;SDS011;1985;48.592;8.850;2022-10-24T06:55:33;11.80;;;2.10;;
3941;SDS011;1985;48.592;8.850;2022-10-24T06:57:59;14.30;;;2.30;;
3941;SDS011;1985;48.592;8.850;2022-10-24T07:00:25;11.75;;;2.00;;
3941;SDS011;1985;48.592;8.850;2022-10-24T07:02:50;14.43;;;2.90;;
3941;SDS011;1985;48.592;8.850;2022-10-24T07:05:16;13.80;;;2.50;;
3941;SDS011;1985;48.592;8.850;2022-10-24T07:07:42;9.90;;;2.10;;
3941;SDS011;1985;48.592;8.850;2022-10-24T07:10:09;11.68;;;2.17;;
3941;SDS011;1985;48.592;8.850;2022-10-24T07:12:37;13.32;;;2.20;;
3941;SDS011;1985;48.592;8.850;2022-10-24T07:15:03;10.18;;;2.05;;
3941;SDS011;1985;48.592;8.850;2022-10-24T07:17:29;15.90;;;2.65;;
3941;SDS011;1985;48.592;8.850;2022-10-24T07:19:54;15.20;;;2.70;;
3941;SDS011;1985;48.592;8.850;2022-10-24T07:22:21;12.60;;;2.90;;
3941;SDS011;1985;48.592;8.850;2022-10-24T07:24:54;14.35;;;2.22;;
3941;SDS011;1985;48.592;8.850;2022-10-24T07:27:20;11.13;;;2.38;;
3941;SDS011;1985;48.592;8.850;2022-10-24T07:29:46;10.00;;;2.17;;
3941;SDS011;1985;48.592;8.850;2022-10-24T07:32:12;14.82;;;2.80;;
3941;SDS011;1985;48.592;8.850;2022-10-24T07:34:38;13.32;;;2.05;;
3941;SDS011;1985;48.592;8.850;2022-10-24T07:37:05;12.40;;;2.30;;
3941;SDS011;1985;48.592;8.850;2022-10-24T07:39:30;10.75;;;2.20;;
3941;SDS011;1985;48.592;8.850;2022-10-24T07:41:57;18.27;;;2.53;;
3941;SDS011;1985;48.592;8.850;2022-10-24T07:44:23;13.20;;;2.30;;
3941;SDS011;1985;48.592;8.850;2022-10-24T07:46:49;15.80;;;2.10;;
3941;SDS011;1985;48.592;8.850;2022-10-24T07:49:14;10.10;;;1.63;;
3941;SDS011;1985;48.592;8.850;2022-10-24T07:51:40;17.08;;;3.00;;
3941;SDS011;1985;48.592;8.850;2022-10-24T07:54:06;10.10;;;2.10;;
3941;SDS011;1985;48.592;8.850;2022-10-24T07:56:32;13.07;;;2.50;;
3941;SDS011;1985;48.592;8.850;2022-10-24T07:58:58;15.35;;;2.17;;
3941;SDS011;1985;48.592;8.850;2022-10-24T08:01:25;10.07;;;2.10;;
3941;SDS011;1985;48.592;8.850;2022-10-24T08:03:52;14.50;;;2.75;;
3941;SDS011;1985;48.592;8.850;2022-10-24T08:06:19;11.85;;;2.40;;
3941;SDS011;1985;48.592;8.850;2022-10-24T08:08:47;11.80;;;2.20;;
3941;SDS011;1985;48.592;8.850;2022-10-24T08:11:15;12.90;;;2.50;;
3941;SDS011;1985;48.592;8.850;2022-10-24T08:13:50;13.20;;;2.13;;
3941;SDS011;1985;48.592;8.850;2022-10-24T08:16:18;14.63;;;2.35;;
3941;SDS011;1985;48.592;8.850;2022-10-24T08:18:45;10.65;;;2.35;;
3941;SDS011;1985;48.592;8.850;2022-10-24T08:21:13;12.55;;;2.97;;
3941;SDS011;1985;48.592;8.850;2022-10-24T08:23:41;13.90;;;2.33;;
3941;SDS011;1985;48.592;8.850;2022-10-24T08:26:14;17.75;;;2.67;;
3941;SDS011;1985;48.592;8.850;2022-10-24T08:28:41;12.40;;;2.70;;
3941;SDS011;1985;48.592;8.850;2022-10-24T08:31:12;11.70;;;2.28;;
3941;SDS011;1985;48.592;8.850;2022-10-24T08:33:39;12.98;;;2.40;;
3941;SDS011;1985;48.592;8.850;2022-10-24T08:36:10;11.63;;;2.43;;
3941;SDS011;1985;48.592;8.850;2022-10-24T08:38:40;13.30;;;2.75;;
3941;SDS011;1985;48.592;8.850;2022-10-24T08:41:08;14.17;;;2.67;;
3941;SDS011;1985;48.592;8.850;2022-10-24T08:43:46;20.27;;;3.20;;
3941;SDS011;1985;48.592;8.850;2022-10-24T08:46:22;13.40;;;2.67;;
3941;SDS011;1985;48.592;8.850;2022-10-24T08:48:53;12.55;;;2.35;;
3941;SDS011;1985;48.592;8.850;2022-10-24T08:51:39;14.00;;;2.60;;
3941;SDS011;1985;48.592;8.850;2022-10-24T08:54:11;11.95;;;2.35;;
3941;SDS011;1985;48.592;8.850;2022-10-24T08:56:41;10.00;;;2.47;;
3941;SDS011;1985;48.592;8.850;2022-10-24T08:59:08;14.73;;;2.90;;
3941;SDS011;1985;48.592;8.850;2022-10-24T09:01:42;15.35;;;2.90;;
3941;SDS011;1985;48.592;8.850;2022-10-24T09:04:13;19.88;;;3.88;;
3941;SDS011;1985;48.592;8.850;2022-10-24T09:06:42;15.13;;;4.00;;
3941;SDS011;1985;48.592;8.850;2022-10-24T09:12:07;13.50;;;3.58;;
3941;SDS011;1985;48.592;8.850;2022-10-24T09:14:38;17.35;;;6.25;;
3941;SDS011;1985;48.592;8.850;2022-10-24T09:17:10;16.90;;;3.88;;
3941;SDS011;1985;48.592;8.850;2022-10-24T09:19:55;16.40;;;5.03;;
3941;SDS011;1985;48.592;8.850;2022-10-24T09:22:40;15.80;;;6.00;;
3941;SDS011;1985;48.592;8.850;2022-10-24T09:25:07;16.27;;;7.10;;
3941;SDS011;1985;48.592;8.850;2022-10-24T09:27:39;21.15;;;9.98;;
3941;SDS011;1985;48.592;8.850;2022-10-24T09:30:06;15.68;;;6.30;;
3941;SDS011;1985;48.592;8.850;2022-10-24T09:32:38;15.30;;;3.72;;
3941;SDS011;1985;48.592;8.850;2022-10-24T09:35:07;17.13;;;4.20;;
3941;SDS011;1985;48.592;8.850;2022-10-24T09:37:41;18.50;;;4.32;;
3941;SDS011;1985;48.592;8.850;2022-10-24T09:42:43;10.60;;;2.70;;
3941;SDS011;1985;48.592;8.850;2022-10-24T09:45:18;13.05;;;3.90;;
3941;SDS011;1985;48.592;8.850;2022-10-24T09:47:57;10.45;;;2.80;;
3941;SDS011;1985;48.592;8.850;2022-10-24T09:50:29;14.85;;;3.03;;
3941;SDS011;1985;48.592;8.850;2022-10-24T09:52:57;22.95;;;8.82;;
3941;SDS011;1985;48.592;8.850;2022-10-24T09:55:25;31.77;;;11.43;;
3941;SDS011;1985;48.592;8.850;2022-10-24T09:57:56;15.83;;;4.03;;
3941;SDS011;1985;48.592;8.850;2022-10-24T10:00:29;24.63;;;6.28;;
3941;SDS011;1985;48.592;8.850;2022-10-24T10:06:15;19.05;;;5.15;;
3941;SDS011;1985;48.592;8.850;2022-10-24T10:08:20;16.40;;;3.13;;
3941;SDS011;1985;48.592;8.850;2022-10-24T10:11:07;9.70;;;2.30;;
3941;SDS011;1985;48.592;8.850;2022-10-24T10:13:42;14.05;;;3.08;;
3941;SDS011;1985;48.592;8.850;2022-10-24T10:19:13;13.25;;;2.63;;
3941;SDS011;1985;48.592;8.850;2022-10-24T10:22:00;13.75;;;2.47;;
3941;SDS011;1985;48.592;8.850;2022-10-24T10:30:06;12.30;;;2.20;;
3941;SDS011;1985;48.592;8.850;2022-10-24T10:32:46;14.23;;;1.67;;
3941;SDS011;1985;48.592;8.850;2022-10-24T10:35:18;12.68;;;1.88;;
3941;SDS011;1985;48.592;8.850;2022-10-24T10:37:48;14.90;;;3.40;;
3941;SDS011;1985;48.592;8.850;2022-10-24T10:40:38;11.32;;;1.98;;
3941;SDS011;1985;48.592;8.850;2022-10-24T10:43:30;9.55;;;1.80;;
3941;SDS011;1985;48.592;8.850;2022-10-24T10:54:47;11.48;;;1.80;;
3941;SDS011;1985;48.592;8.850;2022-10-24T10:57:25;9.27;;;1.30;;
3941;SDS011;1985;48.592;8.850;2022-10-24T11:00:20;11.55;;;1.90;;
3941;SDS011;1985;48.592;8.850;2022-10-24T11:02:54;11.07;;;2.08;;
3941;SDS011;1985;48.592;8.850;2022-10-24T11:05:38;18.48;;;4.40;;
3941;SDS011;1985;48.592;8.850;2022-10-24T11:11:10;8.63;;;1.30;;
3941;SDS011;1985;48.592;8.850;2022-10-24T11:13:51;11.63;;;1.70;;
3941;SDS011;1985;48.592;8.850;2022-10-24T11:16:38;12.50;;;1.90;;
3941;SDS011;1985;48.592;8.850;2022-10-24T11:19:10;9.60;;;1.83;;
3941;SDS011;1985;48.592;8.850;2022-10-24T11:21:48;9.48;;;1.50;;
3941;SDS011;1985;48.592;8.850;2022-10-24T11:24:16;16.50;;;2.33;;
3941;SDS011;1985;48.592;8.850;2022-10-24T11:26:46;11.05;;;2.30;;
3941;SDS011;1985;48.592;8.850;2022-10-24T11:29:19;9.50;;;1.67;;
3941;SDS011;1985;48.592;8.850;2022-10-24T11:37:08;11.00;;;2.47;;
3941;SDS011;1985;48.592;8.850;2022-10-24T11:39:43;11.73;;;2.40;;
3941;SDS011;1985;48.592;8.850;2022-10-24T11:42:51;11.30;;;1.70;;
3941;SDS011;1985;48.592;8.850;2022-10-24T11:48:28;10.50;;;1.30;;
3941;SDS011;1985;48.592;8.850;2022-10-24T11:53:58;9.10;;;1.25;;
3941;SDS011;1985;48.592;8.850;2022-10-24T11:56:35;8.67;;;1.30;;
3941;SDS011;1985;48.592;8.850;2022-10-24T11:59:09;7.70;;;1.20;;
3941;SDS011;1985;48.592;8.850;2022-10-24T12:16:20;8.10;;;1.20;;
3941;SDS011;1985;48.592;8.850;2022-10-24T12:19:14;11.65;;;1.40;;
3941;SDS011;1985;48.592;8.850;2022-10-24T12:21:46;8.00;;;1.10;;
3941;SDS011;1985;48.592;8.850;2022-10-24T12:24:18;14.07;;;1.40;;
3941;SDS011;1985;48.592;8.850;2022-10-24T12:30:04;10.75;;;1.33;;
3941;SDS011;1985;48.592;8.850;2022-10-24T12:32:43;11.90;;;1.40;;
3941;SDS011;1985;48.592;8.850;2022-10-24T12:37:55;10.00;;;1.10;;
3941;SDS011;1985;48.592;8.850;2022-10-24T12:45:56;8.50;;;1.25;;
3941;SDS011;1985;48.592;8.850;2022-10-24T12:50:59;8.68;;;1.35;;
3941;SDS011;1985;48.592;8.850;2022-10-24T12:53:32;12.85;;;1.55;;
3941;SDS011;1985;48.592;8.850;2022-10-24T12:56:07;10.30;;;1.33;;
3941;SDS011;1985;48.592;8.850;2022-10-24T12:58:36;7.60;;;1.02;;
3941;SDS011;1985;48.592;8.850;2022-10-24T13:12:08;8.80;;;1.40;;
3941;SDS011;1985;48.592;8.850;2022-10-24T13:17:14;14.83;;;1.40;;
3941;SDS011;1985;48.592;8.850;2022-10-24T13:19:46;9.65;;;1.40;;
3941;SDS011;1985;48.592;8.850;2022-10-24T13:22:26;8.00;;;1.42;;
3941;SDS011;1985;48.592;8.850;2022-10-24T13:24:59;8.07;;;1.33;;
3941;SDS011;1985;48.592;8.850;2022-10-24T13:27:41;8.10;;;1.10;;
3941;SDS011;1985;48.592;8.850;2022-10-24T13:30:22;9.93;;;1.90;;
3941;SDS011;1985;48.592;8.850;2022-10-24T13:32:50;9.40;;;1.52;;
3941;SDS011;1985;48.592;8.850;2022-10-24T13:35:18;17.33;;;1.87;;
3941;SDS011;1985;48.592;8.850;2022-10-24T13:37:48;16.40;;;2.40;;
3941;SDS011;1985;48.592;8.850;2022-10-24T13:40:20;13.10;;;3.07;;
3941;SDS011;1985;48.592;8.850;2022-10-24T13:45:44;12.77;;;2.63;;
3941;SDS011;1985;48.592;8.850;2022-10-24T13:48:22;12.32;;;1.80;;
3941;SDS011;1985;48.592;8.850;2022-10-24T13:56:34;11.95;;;2.20;;
3941;SDS011;1985;48.592;8.850;2022-10-24T13:59:03;10.65;;;2.20;;
3941;SDS011;1985;48.592;8.850;2022-10-24T14:01:31;9.77;;;1.88;;
3941;SDS011;1985;48.592;8.850;2022-10-24T14:04:00;8.80;;;2.00;;
3941;SDS011;1985;48.592;8.850;2022-10-24T14:06:28;12.65;;;2.00;;
3941;SDS011;1985;48.592;8.850;2022-10-24T14:08:57;8.77;;;1.48;;
3941;SDS011;1985;48.592;8.850;2022-10-24T14:11:26;8.38;;;1.48;;
3941;SDS011;1985;48.592;8.850;2022-10-24T14:13:53;12.57;;;1.58;;
3941;SDS011;1985;48.592;8.850;2022-10-24T14:16:25;9.63;;;1.70;;
3941;SDS011;1985;48.592;8.850;2022-10-24T14:19:15;10.70;;;1.90;;
3941;SDS011;1985;48.592;8.850;2022-10-24T14:21:48;11.37;;;1.60;;
3941;SDS011;1985;48.592;8.850;2022-10-24T14:24:14;10.70;;;1.80;;
3941;SDS011;1985;48.592;8.850;2022-10-24T14:26:41;9.93;;;1.73;;
3941;SDS011;1985;48.592;8.850;2022-10-24T14:29:18;12.20;;;2.40;;
3941;SDS011;1985;48.592;8.850;2022-10-24T14:32:01;10.27;;;2.47;;
3941;SDS011;1985;48.592;8.850;2022-10-24T14:34:28;14.02;;;1.58;;
3941;SDS011;1985;48.592;8.850;2022-10-24T14:36:58;12.10;;;1.90;;
3941;SDS011;1985;48.592;8.850;2022-10-24T14:39:49;10.13;;;1.67;;
3941;SDS011;1985;48.592;8.850;2022-10-24T14:42:15;9.37;;;1.60;;
3941;SDS011;1985;48.592;8.850;2022-10-24T14:44:42;14.82;;;2.30;;
3941;SDS011;1985;48.592;8.850;2022-10-24T14:47:20;8.40;;;1.55;;
3941;SDS011;1985;48.592;8.850;2022-10-24T14:49:47;7.80;;;1.10;;
3941;SDS011;1985;48.592;8.850;2022-10-24T14:54:38;10.27;;;1.47;;
3941;SDS011;1985;48.592;8.850;2022-10-24T14:57:14;12.80;;;1.17;;
3941;SDS011;1985;48.592;8.850;2022-10-24T14:59:44;13.90;;;1.45;;
3941;SDS011;1985;48.592;8.850;2022-10-24T15:05:13;8.30;;;1.40;;
3941;SDS011;1985;48.592;8.850;2022-10-24T15:07:39;10.75;;;1.75;;
3941;SDS011;1985;48.592;8.850;2022-10-24T15:17:49;8.82;;;1.30;;
3941;SDS011;1985;48.592;8.850;2022-10-24T15:20:16;10.02;;;1.20;;
3941;SDS011;1985;48.592;8.850;2022-10-24T15:22:48;9.50;;;1.70;;
3941;SDS011;1985;48.592;8.850;2022-10-24T15:25:23;10.30;;;1.30;;
3941;SDS011;1985;48.592;8.850;2022-10-24T15:28:01;10.05;;;1.50;;
3941;SDS011;1985;48.592;8.850;2022-10-24T15:30:30;10.60;;;1.58;;
3941;SDS011;1985;48.592;8.850;2022-10-24T15:32:56;8.10;;;1.30;;
3941;SDS011;1985;48.592;8.850;2022-10-24T15:35:23;8.00;;;1.20;;
3941;SDS011;1985;48.592;8.850;2022-10-24T15:38:00;7.80;;;1.20;;
3941;SDS011;1985;48.592;8.850;2022-10-24T15:40:29;7.97;;;1.13;;
3941;SDS011;1985;48.592;8.850;2022-10-24T15:42:58;9.82;;;1.40;;
3941;SDS011;1985;48.592;8.850;2022-10-24T15:45:24;12.38;;;1.48;;
3941;SDS011;1985;48.592;8.850;2022-10-24T15:47:51;9.30;;;1.38;;
3941;SDS011;1985;48.592;8.850;2022-10-24T15:50:21;11.65;;;1.60;;
3941;SDS011;1985;48.592;8.850;2022-10-24T15:52:49;8.90;;;1.53;;
3941;SDS011;1985;48.592;8.850;2022-10-24T15:55:17;9.67;;;1.30;;
3941;SDS011;1985;48.592;8.850;2022-10-24T15:57:45;11.38;;;1.90;;
3941;SDS011;1985;48.592;8.850;2022-10-24T16:00:12;8.93;;;1.20;;
3941;SDS011;1985;48.592;8.850;2022-10-24T16:02:40;9.65;;;1.58;;
3941;SDS011;1985;48.592;8.850;2022-10-24T16:05:09;11.23;;;1.75;;
3941;SDS011;1985;48.592;8.850;2022-10-24T16:07:42;10.45;;;1.50;;
3941;SDS011;1985;48.592;8.850;2022-10-24T16:10:09;9.10;;;1.23;;
3941;SDS011;1985;48.592;8.850;2022-10-24T16:12:37;11.38;;;1.70;;
3941;SDS011;1985;48.592;8.850;2022-10-24T16:15:03;12.90;;;1.80;;
3941;SDS011;1985;48.592;8.850;2022-10-24T16:17:29;10.88;;;1.48;;
3941;SDS011;1985;48.592;8.850;2022-10-24T16:19:55;11.30;;;2.00;;
3941;SDS011;1985;48.592;8.850;2022-10-24T16:22:20;9.70;;;1.50;;
3941;SDS011;1985;48.592;8.850;2022-10-24T16:24:46;10.18;;;1.40;;
3941;SDS011;1985;48.592;8.850;2022-10-24T16:27:12;14.73;;;1.88;;
3941;SDS011;1985;48.592;8.850;2022-10-24T16:29:38;9.00;;;1.57;;
3941;SDS011;1985;48.592;8.850;2022-10-24T16:32:04;9.37;;;1.70;;
3941;SDS011;1985;48.592;8.850;2022-10-24T16:34:29;8.40;;;1.90;;
3941;SDS011;1985;48.592;8.850;2022-10-24T16:36:55;9.40;;;1.40;;
3941;SDS011;1985;48.592;8.850;2022-10-24T16:39:20;8.57;;;1.37;;
3941;SDS011;1985;48.592;8.850;2022-10-24T16:41:48;9.70;;;1.40;;
3941;SDS011;1985;48.592;8.850;2022-10-24T16:44:17;8.70;;;1.50;;
3941;SDS011;1985;48.592;8.850;2022-10-24T16:46:43;9.70;;;1.70;;
3941;SDS011;1985;48.592;8.850;2022-10-24T16:49:08;9.70;;;2.47;;
3941;SDS011;1985;48.592;8.850;2022-10-24T16:51:34;9.73;;;1.67;;
3941;SDS011;1985;48.592;8.850;2022-10-24T16:54:00;10.20;;;1.50;;
3941;SDS011;1985;48.592;8.850;2022-10-24T16:56:27;10.03;;;1.67;;
3941;SDS011;1985;48.592;8.850;2022-10-24T16:58:54;8.35;;;1.42;;
3941;SDS011;1985;48.592;8.850;2022-10-24T17:01:19;9.30;;;1.38;;
3941;SDS011;1985;48.592;8.850;2022-10-24T17:03:47;9.27;;;2.00;;
3941;SDS011;1985;48.592;8.850;2022-10-24T17:06:13;9.38;;;2.10;;
3941;SDS011;1985;48.592;8.850;2022-10-24T17:08:38;9.80;;;2.35;;
3941;SDS011;1985;48.592;8.850;2022-10-24T17:11:04;12.17;;;2.97;;
3941;SDS011;1985;48.592;8.850;2022-10-24T17:13:30;10.82;;;2.90;;
3941;SDS011;1985;48.592;8.850;2022-10-24T17:15:56;13.33;;;4.20;;
3941;SDS011;1985;48.592;8.850;2022-10-24T17:18:22;15.38;;;5.45;;
3941;SDS011;1985;48.592;8.850;2022-10-24T17:20:50;16.58;;;3.88;;
3941;SDS011;1985;48.592;8.850;2022-10-24T17:23:22;18.17;;;8.25;;